Harrisburg, Ohio
Current Conditions -  °F | °C
As of 4:50 PM on Monday 24 Nov 2014 (Local Time) from KTZR Reporting Station
Broken Clouds Broken Clouds  
Wind Chill: 37°   Ceiling: 3500
Heat Index: 43°   Visibility: 10mi
Dew Point: 36°   Wind: 12mph
Humidity: 76%   Direction: 190°S
Pressure: 29.69"   Gusts: NA
Location:  39.81°N, 83.17°W
Report Text: KTZR 242150Z 19010KT 10SM BKN035 06/02 A2969
Loading
Personal Weather Stations






























Interactive Weather Map New forecast layout! Learn more

10-Day Weather Forecast

Advertisements
Track Severe Weather on mobile